This is the latest recevied weather packets stored in our database for station/object KD5HIA. If no packets are shown the sender has not sent any weather packets the latest 10 day(s).
| Time | Temp. | Humidity | Pressure | Rain* | Wind** | Luminosity | Snow |
|---|---|---|---|---|---|---|---|
| 1778045417 | 21.67° C | 58% | 1009 hPa | 0 mm | - | 0 W/m² | - |
| 1778044816 | 22.22° C | 54% | 1008.8 hPa | 0 mm | - | 0 W/m² | - |
| 1778044216 | 22.22° C | 47% | 1008.7 hPa | 0 mm | - | 0 W/m² | - |
| 1778043617 | 22.78° C | 45% | 1008.4 hPa | 0 mm | - | 0 W/m² | - |
| 1778043016 | 22.78° C | 45% | 1008.5 hPa | 0 mm | - | 0 W/m² | - |
| 1778042416 | 22.22° C | 46% | 1008.3 hPa | 0 mm | - | 0 W/m² | - |
| 1778041816 | 22.78° C | 45% | 1008.2 hPa | 0 mm | - | 0 W/m² | - |
| 1778041216 | 22.78° C | 48% | 1008.2 hPa | 0 mm | - | 0 W/m² | - |
| 1778040617 | 23.33° C | 41% | 1008.1 hPa | 0 mm | - | 0 W/m² | - |
| 1778040017 | 22.78° C | 47% | 1008.2 hPa | 0 mm | - | 0 W/m² | - |
| 1778039416 | 22.78° C | 45% | 1007.9 hPa | 0 mm | - | 0 W/m² | - |
| 1778038817 | 24.44° C | 37% | 1007.9 hPa | 0 mm | - | 0 W/m² | - |
| 1778038216 | 25° C | 33% | 1008 hPa | 0 mm | - | 0 W/m² | - |
| 1778037616 | 25° C | 32% | 1007.9 hPa | 0 mm | - | 0 W/m² | - |
| 1778037017 | 25.56° C | 31% | 1007.6 hPa | 0 mm | - | 0 W/m² | - |
| 1778036416 | 26.11° C | 30% | 1007.6 hPa | 0 mm | - | 0 W/m² | - |
| 1778035817 | 26.67° C | 29% | 1007.8 hPa | 0 mm | - | 0 W/m² | - |
| 1778035217 | 26.11° C | 30% | 1007.6 hPa | 0 mm | - | 0 W/m² | - |
| 1778034617 | 26.67° C | 30% | 1007.5 hPa | 0 mm | - | 0 W/m² | - |
| 1778034016 | 27.22° C | 29% | 1007.4 hPa | 0 mm | - | 0 W/m² | - |
| 1778033416 | 27.22° C | 27% | 1007.4 hPa | 0 mm | - | 0 W/m² | - |
| 1778032817 | 27.78° C | 27% | 1007.2 hPa | 0 mm | - | 0 W/m² | - |
| 1778032217 | 27.78° C | 26% | 1007 hPa | 0 mm | - | 0 W/m² | - |
| 1778031617 | 28.33° C | 25% | 1006.8 hPa | 0 mm | - | 0 W/m² | - |
| 1778031017 | 28.89° C | 25% | 1006.9 hPa | 0 mm | - | 0 W/m² | - |
* Rain latest hour (hover to see other rain measurements)
** Current wind speed in m/s (hover to see current wind gust speed)